Wallington, United Kingdom
Current Conditions -  °F | °C
As of 8:50 AM on Friday 24 Oct 2014 (Local Time) from EGKB Reporting Station
Broken Clouds Broken Clouds  
Wind Chill: 55°   Ceiling: 500
Heat Index: 55°   Visibility: 6mi
Dew Point: 54°   Wind: 8mph
Humidity: 94%   Direction: 220°SW
Pressure: 30"   Gusts: NA
Location:  51.36°N, 0.15°W
Report Text: EGKB 240750Z 22007KT 9999 BKN005 13/12 Q1016
Loading
Personal Weather Stations






























Interactive Weather Map
Tropical Storm Tracking
New forecast layout! Learn more

10-Day Weather Forecast

Advertisements
Track Severe Weather on mobile